Terminal Aerodrome Forecast
Issued by NWS Louisville, KY

Home | Current Version | Previous Version | Text Only | Print | Product List | Glossary On
Versions: 1 2 3 4 5 6 7 8 9 10 11 12 13 14 15 16 17 18 19 20 21 22 23
000
FTUS43 KLMK 251120
TAFSDF
TAF
KSDF 251120Z 2512/2618 16009KT P6SM BKN200 WS020/18045KT
     FM251300 18015G26KT P6SM SCT040 BKN180
     FM251700 17013G24KT P6SM BKN050
     FM260000 15007KT P6SM -SHRA VCTS BKN045CB
     FM260600 15009KT 4SM -SHRA BKN025=

USA.gov is the U.S. government's official web portal to all federal, state and local government web resources and services.